sensor_id;sensor_type;location;lat;lon;timestamp;temperature;humidity
8408;DHT22;4241;48.452;9.216;2023-07-13T00:01:27;21.10;99.90
8408;DHT22;4241;48.452;9.216;2023-07-13T00:03:54;21.00;99.90
8408;DHT22;4241;48.452;9.216;2023-07-13T00:06:21;21.00;99.90
8408;DHT22;4241;48.452;9.216;2023-07-13T00:08:48;21.00;99.90
8408;DHT22;4241;48.452;9.216;2023-07-13T00:11:17;21.00;99.90
8408;DHT22;4241;48.452;9.216;2023-07-13T00:13:44;21.00;99.90
8408;DHT22;4241;48.452;9.216;2023-07-13T00:16:11;20.80;99.90
8408;DHT22;4241;48.452;9.216;2023-07-13T00:18:39;20.80;99.90
8408;DHT22;4241;48.452;9.216;2023-07-13T00:21:06;20.70;99.90
8408;DHT22;4241;48.452;9.216;2023-07-13T00:23:33;20.80;99.90
8408;DHT22;4241;48.452;9.216;2023-07-13T00:26:00;20.70;99.90
8408;DHT22;4241;48.452;9.216;2023-07-13T00:28:29;20.60;99.90
8408;DHT22;4241;48.452;9.216;2023-07-13T00:30:56;20.40;99.90
8408;DHT22;4241;48.452;9.216;2023-07-13T00:33:22;20.30;99.90
8408;DHT22;4241;48.452;9.216;2023-07-13T00:35:50;20.40;99.90
8408;DHT22;4241;48.452;9.216;2023-07-13T00:38:17;20.40;99.90
8408;DHT22;4241;48.452;9.216;2023-07-13T00:40:43;20.20;99.90
8408;DHT22;4241;48.452;9.216;2023-07-13T00:43:13;20.20;99.90
8408;DHT22;4241;48.452;9.216;2023-07-13T00:46:12;20.10;99.90
8408;DHT22;4241;48.452;9.216;2023-07-13T00:48:39;20.00;99.90
8408;DHT22;4241;48.452;9.216;2023-07-13T00:51:06;20.10;99.90
8408;DHT22;4241;48.452;9.216;2023-07-13T00:53:34;20.00;99.90
8408;DHT22;4241;48.452;9.216;2023-07-13T00:56:01;20.10;99.90
8408;DHT22;4241;48.452;9.216;2023-07-13T00:58:29;20.10;99.90
8408;DHT22;4241;48.452;9.216;2023-07-13T01:00:59;20.10;99.90
8408;DHT22;4241;48.452;9.216;2023-07-13T01:03:27;20.00;99.90
8408;DHT22;4241;48.452;9.216;2023-07-13T01:05:54;20.00;99.90
8408;DHT22;4241;48.452;9.216;2023-07-13T01:08:22;20.10;99.90
8408;DHT22;4241;48.452;9.216;2023-07-13T01:10:53;20.00;99.90
8408;DHT22;4241;48.452;9.216;2023-07-13T01:13:20;20.00;99.90
8408;DHT22;4241;48.452;9.216;2023-07-13T01:15:49;20.00;99.90
8408;DHT22;4241;48.452;9.216;2023-07-13T01:18:19;19.80;99.90
8408;DHT22;4241;48.452;9.216;2023-07-13T01:20:51;19.90;99.90
8408;DHT22;4241;48.452;9.216;2023-07-13T01:23:18;19.80;99.90
8408;DHT22;4241;48.452;9.216;2023-07-13T01:25:45;19.80;99.90
8408;DHT22;4241;48.452;9.216;2023-07-13T01:28:13;19.70;99.90
8408;DHT22;4241;48.452;9.216;2023-07-13T01:30:43;19.60;99.90
8408;DHT22;4241;48.452;9.216;2023-07-13T01:33:12;19.60;99.90
8408;DHT22;4241;48.452;9.216;2023-07-13T01:38:09;19.60;99.90
8408;DHT22;4241;48.452;9.216;2023-07-13T01:40:37;19.60;99.90
8408;DHT22;4241;48.452;9.216;2023-07-13T01:43:04;19.60;99.90
8408;DHT22;4241;48.452;9.216;2023-07-13T01:45:31;19.40;99.90
8408;DHT22;4241;48.452;9.216;2023-07-13T01:47:58;19.40;99.90
8408;DHT22;4241;48.452;9.216;2023-07-13T01:50:26;19.40;99.90
8408;DHT22;4241;48.452;9.216;2023-07-13T01:52:52;19.40;99.90
8408;DHT22;4241;48.452;9.216;2023-07-13T01:55:24;19.40;99.90
8408;DHT22;4241;48.452;9.216;2023-07-13T01:57:51;19.30;99.90
8408;DHT22;4241;48.452;9.216;2023-07-13T02:00:18;19.30;99.90
8408;DHT22;4241;48.452;9.216;2023-07-13T02:02:45;19.20;99.90
8408;DHT22;4241;48.452;9.216;2023-07-13T02:05:17;19.20;99.90
8408;DHT22;4241;48.452;9.216;2023-07-13T02:07:44;19.10;99.90
8408;DHT22;4241;48.452;9.216;2023-07-13T02:10:11;19.10;99.90
8408;DHT22;4241;48.452;9.216;2023-07-13T02:12:40;19.10;99.90
8408;DHT22;4241;48.452;9.216;2023-07-13T02:15:08;19.00;99.90
8408;DHT22;4241;48.452;9.216;2023-07-13T02:17:35;19.00;99.90
8408;DHT22;4241;48.452;9.216;2023-07-13T02:20:02;18.80;99.90
8408;DHT22;4241;48.452;9.216;2023-07-13T02:22:30;18.80;99.90
8408;DHT22;4241;48.452;9.216;2023-07-13T02:27:24;18.70;99.90
8408;DHT22;4241;48.452;9.216;2023-07-13T02:29:52;18.70;99.90
8408;DHT22;4241;48.452;9.216;2023-07-13T02:32:19;18.70;99.90
8408;DHT22;4241;48.452;9.216;2023-07-13T02:34:46;18.60;99.90
8408;DHT22;4241;48.452;9.216;2023-07-13T02:37:13;18.60;99.90
8408;DHT22;4241;48.452;9.216;2023-07-13T02:39:40;18.50;99.90
8408;DHT22;4241;48.452;9.216;2023-07-13T02:42:07;18.60;99.90
8408;DHT22;4241;48.452;9.216;2023-07-13T02:44:33;18.60;99.90
8408;DHT22;4241;48.452;9.216;2023-07-13T02:47:02;18.50;99.90
8408;DHT22;4241;48.452;9.216;2023-07-13T02:49:28;18.50;99.90
8408;DHT22;4241;48.452;9.216;2023-07-13T02:51:55;18.30;99.90
8408;DHT22;4241;48.452;9.216;2023-07-13T02:54:22;18.30;99.90
8408;DHT22;4241;48.452;9.216;2023-07-13T02:56:49;18.30;99.90
8408;DHT22;4241;48.452;9.216;2023-07-13T02:59:15;18.20;99.90
8408;DHT22;4241;48.452;9.216;2023-07-13T03:01:42;18.20;99.90
8408;DHT22;4241;48.452;9.216;2023-07-13T03:04:10;18.20;99.90
8408;DHT22;4241;48.452;9.216;2023-07-13T03:06:37;18.20;99.90
8408;DHT22;4241;48.452;9.216;2023-07-13T03:09:04;18.10;99.90
8408;DHT22;4241;48.452;9.216;2023-07-13T03:11:31;18.10;99.90
8408;DHT22;4241;48.452;9.216;2023-07-13T03:13:58;18.00;99.90
8408;DHT22;4241;48.452;9.216;2023-07-13T03:16:25;18.00;99.90
8408;DHT22;4241;48.452;9.216;2023-07-13T03:18:52;17.90;99.90
8408;DHT22;4241;48.452;9.216;2023-07-13T03:21:20;17.80;99.90
8408;DHT22;4241;48.452;9.216;2023-07-13T03:23:47;17.90;99.90
8408;DHT22;4241;48.452;9.216;2023-07-13T03:26:16;17.70;99.90
8408;DHT22;4241;48.452;9.216;2023-07-13T03:28:44;17.70;99.90
8408;DHT22;4241;48.452;9.216;2023-07-13T03:31:13;17.80;99.90
8408;DHT22;4241;48.452;9.216;2023-07-13T03:36:14;17.60;99.90
8408;DHT22;4241;48.452;9.216;2023-07-13T03:38:46;17.60;99.90
8408;DHT22;4241;48.452;9.216;2023-07-13T03:51:02;17.30;99.90
8408;DHT22;4241;48.452;9.216;2023-07-13T03:53:31;17.20;99.90
8408;DHT22;4241;48.452;9.216;2023-07-13T03:55:59;17.20;99.90
8408;DHT22;4241;48.452;9.216;2023-07-13T03:58:29;17.20;99.90
8408;DHT22;4241;48.452;9.216;2023-07-13T04:03:24;17.20;99.90
8408;DHT22;4241;48.452;9.216;2023-07-13T04:05:54;17.10;99.90
8408;DHT22;4241;48.452;9.216;2023-07-13T04:08:24;17.00;99.90
8408;DHT22;4241;48.452;9.216;2023-07-13T04:13:19;17.10;99.90
8408;DHT22;4241;48.452;9.216;2023-07-13T04:15:46;17.00;99.90
8408;DHT22;4241;48.452;9.216;2023-07-13T04:18:12;17.10;99.90
8408;DHT22;4241;48.452;9.216;2023-07-13T04:20:39;17.10;99.90
8408;DHT22;4241;48.452;9.216;2023-07-13T04:23:06;17.20;99.90
8408;DHT22;4241;48.452;9.216;2023-07-13T04:30:28;17.20;99.90
8408;DHT22;4241;48.452;9.216;2023-07-13T04:35:22;17.30;99.90
8408;DHT22;4241;48.452;9.216;2023-07-13T04:37:49;17.30;99.90
8408;DHT22;4241;48.452;9.216;2023-07-13T04:40:17;17.20;99.90
8408;DHT22;4241;48.452;9.216;2023-07-13T04:42:44;17.30;99.90
8408;DHT22;4241;48.452;9.216;2023-07-13T04:45:12;17.20;99.90
8408;DHT22;4241;48.452;9.216;2023-07-13T04:47:41;17.10;99.90
8408;DHT22;4241;48.452;9.216;2023-07-13T04:50:08;17.30;99.90
8408;DHT22;4241;48.452;9.216;2023-07-13T04:55:04;17.40;99.90
8408;DHT22;4241;48.452;9.216;2023-07-13T04:57:31;17.30;99.90
8408;DHT22;4241;48.452;9.216;2023-07-13T04:59:58;17.30;99.90
8408;DHT22;4241;48.452;9.216;2023-07-13T05:04:55;17.50;99.90
8408;DHT22;4241;48.452;9.216;2023-07-13T05:07:22;17.30;99.90
8408;DHT22;4241;48.452;9.216;2023-07-13T05:12:15;17.40;99.90
8408;DHT22;4241;48.452;9.216;2023-07-13T05:14:42;17.40;99.90
8408;DHT22;4241;48.452;9.216;2023-07-13T05:17:09;17.50;99.90
8408;DHT22;4241;48.452;9.216;2023-07-13T05:19:36;17.60;99.90
8408;DHT22;4241;48.452;9.216;2023-07-13T05:22:04;17.50;99.90
8408;DHT22;4241;48.452;9.216;2023-07-13T05:24:31;17.60;99.90
8408;DHT22;4241;48.452;9.216;2023-07-13T05:31:53;17.60;99.90
8408;DHT22;4241;48.452;9.216;2023-07-13T05:36:47;17.70;99.90
8408;DHT22;4241;48.452;9.216;2023-07-13T05:39:16;17.80;99.90
8408;DHT22;4241;48.452;9.216;2023-07-13T05:46:37;17.90;99.90
8408;DHT22;4241;48.452;9.216;2023-07-13T05:51:31;17.90;99.90
8408;DHT22;4241;48.452;9.216;2023-07-13T05:53:57;18.00;99.90
8408;DHT22;4241;48.452;9.216;2023-07-13T05:56:26;18.00;99.90
8408;DHT22;4241;48.452;9.216;2023-07-13T06:01:19;18.20;99.90
8408;DHT22;4241;48.452;9.216;2023-07-13T06:03:48;18.40;99.90
8408;DHT22;4241;48.452;9.216;2023-07-13T06:06:15;18.60;99.90
8408;DHT22;4241;48.452;9.216;2023-07-13T06:11:13;18.90;99.90
8408;DHT22;4241;48.452;9.216;2023-07-13T06:13:42;19.00;99.90
8408;DHT22;4241;48.452;9.216;2023-07-13T06:16:10;19.10;99.90
8408;DHT22;4241;48.452;9.216;2023-07-13T06:21:08;19.00;99.90
8408;DHT22;4241;48.452;9.216;2023-07-13T06:23:36;19.20;99.90
8408;DHT22;4241;48.452;9.216;2023-07-13T06:30:59;19.60;99.90
8408;DHT22;4241;48.452;9.216;2023-07-13T06:33:27;19.60;99.90
8408;DHT22;4241;48.452;9.216;2023-07-13T06:38:21;19.90;99.90
8408;DHT22;4241;48.452;9.216;2023-07-13T06:40:48;20.00;99.90
8408;DHT22;4241;48.452;9.216;2023-07-13T06:43:15;20.00;99.90
8408;DHT22;4241;48.452;9.216;2023-07-13T06:45:44;20.20;99.90
8408;DHT22;4241;48.452;9.216;2023-07-13T06:48:14;20.30;99.90
8408;DHT22;4241;48.452;9.216;2023-07-13T06:50:41;20.40;99.90
8408;DHT22;4241;48.452;9.216;2023-07-13T06:53:08;20.60;99.90
8408;DHT22;4241;48.452;9.216;2023-07-13T06:55:35;20.70;99.90
8408;DHT22;4241;48.452;9.216;2023-07-13T06:58:01;20.90;99.90
8408;DHT22;4241;48.452;9.216;2023-07-13T07:02:56;21.10;99.90
8408;DHT22;4241;48.452;9.216;2023-07-13T07:05:24;21.20;99.90
8408;DHT22;4241;48.452;9.216;2023-07-13T07:15:13;21.40;99.90
8408;DHT22;4241;48.452;9.216;2023-07-13T07:20:08;21.80;99.90
8408;DHT22;4241;48.452;9.216;2023-07-13T07:22:36;21.70;99.90
8408;DHT22;4241;48.452;9.216;2023-07-13T07:25:04;21.90;99.90
8408;DHT22;4241;48.452;9.216;2023-07-13T07:32:25;22.10;99.90
8408;DHT22;4241;48.452;9.216;2023-07-13T07:37:19;22.40;97.60
8408;DHT22;4241;48.452;9.216;2023-07-13T07:39:47;22.40;94.90
8408;DHT22;4241;48.452;9.216;2023-07-13T07:44:41;22.40;96.30
8408;DHT22;4241;48.452;9.216;2023-07-13T07:47:08;22.70;92.10
8408;DHT22;4241;48.452;9.216;2023-07-13T07:49:35;22.60;90.70
8408;DHT22;4241;48.452;9.216;2023-07-13T07:52:03;22.60;92.60
8408;DHT22;4241;48.452;9.216;2023-07-13T07:54:30;22.80;91.30
8408;DHT22;4241;48.452;9.216;2023-07-13T07:56:58;22.80;84.50
8408;DHT22;4241;48.452;9.216;2023-07-13T07:59:25;22.90;90.40
8408;DHT22;4241;48.452;9.216;2023-07-13T08:01:51;22.90;90.50
8408;DHT22;4241;48.452;9.216;2023-07-13T08:04:19;23.00;90.80
8408;DHT22;4241;48.452;9.216;2023-07-13T08:06:45;23.20;88.40
8408;DHT22;4241;48.452;9.216;2023-07-13T08:09:12;23.50;88.40
8408;DHT22;4241;48.452;9.216;2023-07-13T08:14:07;23.80;86.70
8408;DHT22;4241;48.452;9.216;2023-07-13T08:16:35;23.90;82.40
8408;DHT22;4241;48.452;9.216;2023-07-13T08:19:01;24.10;84.80
8408;DHT22;4241;48.452;9.216;2023-07-13T08:21:29;24.30;79.70
8408;DHT22;4241;48.452;9.216;2023-07-13T08:23:56;24.40;77.60
8408;DHT22;4241;48.452;9.216;2023-07-13T08:26:23;24.60;79.90
8408;DHT22;4241;48.452;9.216;2023-07-13T08:28:50;24.70;80.60
8408;DHT22;4241;48.452;9.216;2023-07-13T08:31:18;24.60;77.20
8408;DHT22;4241;48.452;9.216;2023-07-13T08:33:45;24.70;75.40
8408;DHT22;4241;48.452;9.216;2023-07-13T08:36:12;24.80;77.20
8408;DHT22;4241;48.452;9.216;2023-07-13T08:38:39;24.90;76.90
8408;DHT22;4241;48.452;9.216;2023-07-13T08:41:12;25.00;75.70
8408;DHT22;4241;48.452;9.216;2023-07-13T08:43:39;24.80;77.60
8408;DHT22;4241;48.452;9.216;2023-07-13T08:46:12;25.10;80.80
8408;DHT22;4241;48.452;9.216;2023-07-13T08:48:44;25.10;82.70
8408;DHT22;4241;48.452;9.216;2023-07-13T08:51:21;25.20;76.70
8408;DHT22;4241;48.452;9.216;2023-07-13T08:53:52;25.20;74.30
8408;DHT22;4241;48.452;9.216;2023-07-13T08:56:22;25.20;75.90
8408;DHT22;4241;48.452;9.216;2023-07-13T08:58:53;25.20;72.70
8408;DHT22;4241;48.452;9.216;2023-07-13T09:01:24;25.10;71.70
8408;DHT22;4241;48.452;9.216;2023-07-13T09:04:01;25.20;74.40
8408;DHT22;4241;48.452;9.216;2023-07-13T09:06:37;25.40;74.20
8408;DHT22;4241;48.452;9.216;2023-07-13T09:09:09;25.60;75.10
8408;DHT22;4241;48.452;9.216;2023-07-13T09:11:45;25.90;75.40
8408;DHT22;4241;48.452;9.216;2023-07-13T09:14:29;26.00;73.60
8408;DHT22;4241;48.452;9.216;2023-07-13T09:16:59;26.00;73.30
8408;DHT22;4241;48.452;9.216;2023-07-13T09:19:30;25.90;72.60
8408;DHT22;4241;48.452;9.216;2023-07-13T09:21:59;25.90;69.50
8408;DHT22;4241;48.452;9.216;2023-07-13T09:24:30;25.90;68.90
8408;DHT22;4241;48.452;9.216;2023-07-13T09:27:03;25.70;69.40
8408;DHT22;4241;48.452;9.216;2023-07-13T09:29:33;25.70;73.00
8408;DHT22;4241;48.452;9.216;2023-07-13T09:32:02;26.10;70.70
8408;DHT22;4241;48.452;9.216;2023-07-13T09:34:32;26.30;73.20
8408;DHT22;4241;48.452;9.216;2023-07-13T09:36:59;26.20;70.40
8408;DHT22;4241;48.452;9.216;2023-07-13T09:39:29;26.20;71.00
8408;DHT22;4241;48.452;9.216;2023-07-13T09:42:01;25.90;68.70
8408;DHT22;4241;48.452;9.216;2023-07-13T09:44:33;26.40;73.90
8408;DHT22;4241;48.452;9.216;2023-07-13T09:47:01;26.60;69.60
8408;DHT22;4241;48.452;9.216;2023-07-13T09:49:35;26.70;67.20
8408;DHT22;4241;48.452;9.216;2023-07-13T09:52:07;26.90;68.40
8408;DHT22;4241;48.452;9.216;2023-07-13T09:54:37;27.10;68.20
8408;DHT22;4241;48.452;9.216;2023-07-13T09:57:12;27.00;66.00
8408;DHT22;4241;48.452;9.216;2023-07-13T09:59:41;27.00;67.00
8408;DHT22;4241;48.452;9.216;2023-07-13T10:02:26;27.10;63.20
8408;DHT22;4241;48.452;9.216;2023-07-13T10:04:57;27.20;68.80
8408;DHT22;4241;48.452;9.216;2023-07-13T10:07:26;27.00;63.60
8408;DHT22;4241;48.452;9.216;2023-07-13T10:09:54;27.00;65.30
8408;DHT22;4241;48.452;9.216;2023-07-13T10:12:21;27.20;65.40
8408;DHT22;4241;48.452;9.216;2023-07-13T10:14:51;27.10;63.40
8408;DHT22;4241;48.452;9.216;2023-07-13T10:17:26;27.10;62.90
8408;DHT22;4241;48.452;9.216;2023-07-13T10:19:59;27.30;63.90
8408;DHT22;4241;48.452;9.216;2023-07-13T10:22:36;27.50;64.20
8408;DHT22;4241;48.452;9.216;2023-07-13T10:25:15;27.60;63.10
8408;DHT22;4241;48.452;9.216;2023-07-13T10:27:44;27.70;63.00
8408;DHT22;4241;48.452;9.216;2023-07-13T10:30:17;27.70;63.30
8408;DHT22;4241;48.452;9.216;2023-07-13T10:32:46;27.60;63.70
8408;DHT22;4241;48.452;9.216;2023-07-13T10:35:15;27.50;63.20
8408;DHT22;4241;48.452;9.216;2023-07-13T10:37:49;27.50;63.40
8408;DHT22;4241;48.452;9.216;2023-07-13T10:40:20;27.20;60.20
8408;DHT22;4241;48.452;9.216;2023-07-13T10:42:51;27.10;62.30
8408;DHT22;4241;48.452;9.216;2023-07-13T10:45:21;27.10;62.70
8408;DHT22;4241;48.452;9.216;2023-07-13T10:47:51;27.10;63.80
8408;DHT22;4241;48.452;9.216;2023-07-13T10:50:21;27.20;65.10
8408;DHT22;4241;48.452;9.216;2023-07-13T10:52:53;27.20;63.70
8408;DHT22;4241;48.452;9.216;2023-07-13T10:55:33;27.10;61.00
8408;DHT22;4241;48.452;9.216;2023-07-13T10:58:02;27.20;61.90
8408;DHT22;4241;48.452;9.216;2023-07-13T11:00:31;27.20;61.30
8408;DHT22;4241;48.452;9.216;2023-07-13T11:03:00;27.10;60.00
8408;DHT22;4241;48.452;9.216;2023-07-13T11:05:30;27.10;60.20
8408;DHT22;4241;48.452;9.216;2023-07-13T11:08:13;27.40;62.20
8408;DHT22;4241;48.452;9.216;2023-07-13T11:10:53;27.50;61.90
8408;DHT22;4241;48.452;9.216;2023-07-13T11:13:38;27.50;61.60
8408;DHT22;4241;48.452;9.216;2023-07-13T11:16:37;27.70;60.00
8408;DHT22;4241;48.452;9.216;2023-07-13T11:19:39;28.10;60.80
8408;DHT22;4241;48.452;9.216;2023-07-13T11:25:02;28.20;60.00
8408;DHT22;4241;48.452;9.216;2023-07-13T11:27:51;28.30;58.40
8408;DHT22;4241;48.452;9.216;2023-07-13T11:30:23;28.20;57.80
8408;DHT22;4241;48.452;9.216;2023-07-13T11:33:07;28.40;57.50
8408;DHT22;4241;48.452;9.216;2023-07-13T11:35:42;28.40;57.80
8408;DHT22;4241;48.452;9.216;2023-07-13T11:38:15;28.50;55.50
8408;DHT22;4241;48.452;9.216;2023-07-13T11:40:45;28.50;56.30
8408;DHT22;4241;48.452;9.216;2023-07-13T11:43:14;28.50;57.30
8408;DHT22;4241;48.452;9.216;2023-07-13T11:45:42;28.40;56.80
8408;DHT22;4241;48.452;9.216;2023-07-13T11:48:21;28.20;55.00
8408;DHT22;4241;48.452;9.216;2023-07-13T11:50:54;28.10;58.80
8408;DHT22;4241;48.452;9.216;2023-07-13T11:53:23;28.00;58.70
8408;DHT22;4241;48.452;9.216;2023-07-13T11:55:53;27.90;56.90
8408;DHT22;4241;48.452;9.216;2023-07-13T11:58:25;27.60;57.20
8408;DHT22;4241;48.452;9.216;2023-07-13T12:00:55;27.60;61.00
8408;DHT22;4241;48.452;9.216;2023-07-13T12:03:25;27.90;62.70
8408;DHT22;4241;48.452;9.216;2023-07-13T12:05:56;27.80;58.70
8408;DHT22;4241;48.452;9.216;2023-07-13T12:08:24;27.50;58.50
8408;DHT22;4241;48.452;9.216;2023-07-13T12:10:59;27.70;57.20
8408;DHT22;4241;48.452;9.216;2023-07-13T12:13:27;27.60;56.20
8408;DHT22;4241;48.452;9.216;2023-07-13T12:15:56;27.80;57.20
8408;DHT22;4241;48.452;9.216;2023-07-13T12:18:29;28.00;56.00
8408;DHT22;4241;48.452;9.216;2023-07-13T12:20:58;28.10;55.80
8408;DHT22;4241;48.452;9.216;2023-07-13T12:23:34;28.40;55.50
8408;DHT22;4241;48.452;9.216;2023-07-13T12:26:04;28.70;56.40
8408;DHT22;4241;48.452;9.216;2023-07-13T12:28:34;28.90;57.10
8408;DHT22;4241;48.452;9.216;2023-07-13T12:31:05;28.90;56.50
8408;DHT22;4241;48.452;9.216;2023-07-13T12:33:33;29.20;54.70
8408;DHT22;4241;48.452;9.216;2023-07-13T12:36:05;29.50;53.90
8408;DHT22;4241;48.452;9.216;2023-07-13T12:38:32;29.80;51.90
8408;DHT22;4241;48.452;9.216;2023-07-13T12:41:02;30.00;52.30
8408;DHT22;4241;48.452;9.216;2023-07-13T12:43:34;29.80;49.60
8408;DHT22;4241;48.452;9.216;2023-07-13T12:46:05;29.50;51.20
8408;DHT22;4241;48.452;9.216;2023-07-13T12:48:42;29.20;52.10
8408;DHT22;4241;48.452;9.216;2023-07-13T12:51:11;28.90;52.50
8408;DHT22;4241;48.452;9.216;2023-07-13T12:53:41;28.60;54.70
8408;DHT22;4241;48.452;9.216;2023-07-13T12:56:16;28.60;55.50
8408;DHT22;4241;48.452;9.216;2023-07-13T12:58:46;28.60;55.50
8408;DHT22;4241;48.452;9.216;2023-07-13T13:01:21;29.00;55.60
8408;DHT22;4241;48.452;9.216;2023-07-13T13:03:50;28.90;54.00
8408;DHT22;4241;48.452;9.216;2023-07-13T13:06:22;28.90;54.50
8408;DHT22;4241;48.452;9.216;2023-07-13T13:08:51;28.80;50.70
8408;DHT22;4241;48.452;9.216;2023-07-13T13:11:21;28.80;50.90
8408;DHT22;4241;48.452;9.216;2023-07-13T13:13:49;28.70;51.40
8408;DHT22;4241;48.452;9.216;2023-07-13T13:16:20;28.00;53.60
8408;DHT22;4241;48.452;9.216;2023-07-13T13:18:47;28.00;53.80
8408;DHT22;4241;48.452;9.216;2023-07-13T13:21:14;28.10;55.00
8408;DHT22;4241;48.452;9.216;2023-07-13T13:23:41;28.10;53.90
8408;DHT22;4241;48.452;9.216;2023-07-13T13:26:11;28.00;52.20
8408;DHT22;4241;48.452;9.216;2023-07-13T13:28:39;27.90;54.90
8408;DHT22;4241;48.452;9.216;2023-07-13T13:31:08;28.00;53.90
8408;DHT22;4241;48.452;9.216;2023-07-13T13:33:38;28.10;55.60
8408;DHT22;4241;48.452;9.216;2023-07-13T13:36:13;28.20;54.50
8408;DHT22;4241;48.452;9.216;2023-07-13T13:38:41;28.00;51.40
8408;DHT22;4241;48.452;9.216;2023-07-13T13:41:09;27.70;53.30
8408;DHT22;4241;48.452;9.216;2023-07-13T13:43:36;27.70;53.30
8408;DHT22;4241;48.452;9.216;2023-07-13T13:46:13;27.90;52.10
8408;DHT22;4241;48.452;9.216;2023-07-13T13:48:41;28.10;53.20
8408;DHT22;4241;48.452;9.216;2023-07-13T13:51:13;28.10;51.70
8408;DHT22;4241;48.452;9.216;2023-07-13T13:53:41;28.10;51.70
8408;DHT22;4241;48.452;9.216;2023-07-13T13:56:08;28.20;52.00
8408;DHT22;4241;48.452;9.216;2023-07-13T13:58:35;28.20;51.20
8408;DHT22;4241;48.452;9.216;2023-07-13T14:01:03;28.20;51.80
8408;DHT22;4241;48.452;9.216;2023-07-13T14:03:33;28.40;54.70
8408;DHT22;4241;48.452;9.216;2023-07-13T14:06:00;28.20;54.40
8408;DHT22;4241;48.452;9.216;2023-07-13T14:08:27;28.00;54.00
8408;DHT22;4241;48.452;9.216;2023-07-13T14:10:56;28.00;53.20
8408;DHT22;4241;48.452;9.216;2023-07-13T14:13:27;28.20;53.20
8408;DHT22;4241;48.452;9.216;2023-07-13T14:15:54;28.20;53.60
8408;DHT22;4241;48.452;9.216;2023-07-13T14:18:22;28.60;51.60
8408;DHT22;4241;48.452;9.216;2023-07-13T14:20:49;28.60;52.50
8408;DHT22;4241;48.452;9.216;2023-07-13T14:23:17;28.80;53.90
8408;DHT22;4241;48.452;9.216;2023-07-13T14:25:45;28.50;48.70
8408;DHT22;4241;48.452;9.216;2023-07-13T14:28:20;28.50;49.10
8408;DHT22;4241;48.452;9.216;2023-07-13T14:30:47;28.60;51.70
8408;DHT22;4241;48.452;9.216;2023-07-13T14:33:14;29.10;52.50
8408;DHT22;4241;48.452;9.216;2023-07-13T14:35:43;29.20;51.10
8408;DHT22;4241;48.452;9.216;2023-07-13T14:38:12;29.00;51.30
8408;DHT22;4241;48.452;9.216;2023-07-13T14:40:40;28.70;47.00
8408;DHT22;4241;48.452;9.216;2023-07-13T14:43:10;28.60;47.30
8408;DHT22;4241;48.452;9.216;2023-07-13T14:45:40;28.40;50.20
8408;DHT22;4241;48.452;9.216;2023-07-13T14:48:16;28.70;50.50
8408;DHT22;4241;48.452;9.216;2023-07-13T14:50:45;28.90;49.00
8408;DHT22;4241;48.452;9.216;2023-07-13T14:53:13;28.90;49.00
8408;DHT22;4241;48.452;9.216;2023-07-13T14:55:40;29.30;50.30
8408;DHT22;4241;48.452;9.216;2023-07-13T14:58:08;29.00;48.40
8408;DHT22;4241;48.452;9.216;2023-07-13T15:00:36;29.10;48.70
8408;DHT22;4241;48.452;9.216;2023-07-13T15:03:04;29.40;51.00
8408;DHT22;4241;48.452;9.216;2023-07-13T15:05:32;29.60;47.90
8408;DHT22;4241;48.452;9.216;2023-07-13T15:08:02;29.60;48.00
8408;DHT22;4241;48.452;9.216;2023-07-13T15:10:32;29.70;49.50
8408;DHT22;4241;48.452;9.216;2023-07-13T15:13:00;29.40;48.50
8408;DHT22;4241;48.452;9.216;2023-07-13T15:15:30;28.80;48.90
8408;DHT22;4241;48.452;9.216;2023-07-13T15:17:57;28.90;49.90
8408;DHT22;4241;48.452;9.216;2023-07-13T15:20:26;29.00;50.60
8408;DHT22;4241;48.452;9.216;2023-07-13T15:22:54;29.10;49.50
8408;DHT22;4241;48.452;9.216;2023-07-13T15:25:24;29.30;47.70
8408;DHT22;4241;48.452;9.216;2023-07-13T15:27:51;29.20;47.30
8408;DHT22;4241;48.452;9.216;2023-07-13T15:30:18;29.40;48.70
8408;DHT22;4241;48.452;9.216;2023-07-13T15:32:45;29.40;45.80
8408;DHT22;4241;48.452;9.216;2023-07-13T15:35:17;29.10;48.40
8408;DHT22;4241;48.452;9.216;2023-07-13T15:37:44;29.20;47.60
8408;DHT22;4241;48.452;9.216;2023-07-13T15:40:13;29.20;49.30
8408;DHT22;4241;48.452;9.216;2023-07-13T15:42:43;29.00;49.30
8408;DHT22;4241;48.452;9.216;2023-07-13T15:45:21;28.80;47.50
8408;DHT22;4241;48.452;9.216;2023-07-13T15:47:49;28.80;50.50
8408;DHT22;4241;48.452;9.216;2023-07-13T15:50:18;29.00;52.10
8408;DHT22;4241;48.452;9.216;2023-07-13T15:52:47;29.40;53.00
8408;DHT22;4241;48.452;9.216;2023-07-13T15:55:15;29.70;49.20
8408;DHT22;4241;48.452;9.216;2023-07-13T15:57:51;29.90;48.20
8408;DHT22;4241;48.452;9.216;2023-07-13T16:00:21;30.00;50.70
8408;DHT22;4241;48.452;9.216;2023-07-13T16:02:49;29.70;49.40
8408;DHT22;4241;48.452;9.216;2023-07-13T16:05:16;29.70;49.80
8408;DHT22;4241;48.452;9.216;2023-07-13T16:07:43;30.20;48.90
8408;DHT22;4241;48.452;9.216;2023-07-13T16:10:16;30.70;50.50
8408;DHT22;4241;48.452;9.216;2023-07-13T16:12:45;30.80;51.20
8408;DHT22;4241;48.452;9.216;2023-07-13T16:15:18;30.80;48.10
8408;DHT22;4241;48.452;9.216;2023-07-13T16:17:47;30.80;48.40
8408;DHT22;4241;48.452;9.216;2023-07-13T16:20:15;30.90;46.60
8408;DHT22;4241;48.452;9.216;2023-07-13T16:22:45;30.90;47.00
8408;DHT22;4241;48.452;9.216;2023-07-13T16:25:14;30.90;46.50
8408;DHT22;4241;48.452;9.216;2023-07-13T16:27:41;31.10;47.80
8408;DHT22;4241;48.452;9.216;2023-07-13T16:30:16;31.10;48.40
8408;DHT22;4241;48.452;9.216;2023-07-13T16:32:47;31.20;47.30
8408;DHT22;4241;48.452;9.216;2023-07-13T16:35:16;31.20;47.20
8408;DHT22;4241;48.452;9.216;2023-07-13T16:37:43;31.20;46.20
8408;DHT22;4241;48.452;9.216;2023-07-13T16:40:21;30.90;46.80
8408;DHT22;4241;48.452;9.216;2023-07-13T16:42:49;30.90;47.30
8408;DHT22;4241;48.452;9.216;2023-07-13T16:45:18;30.70;46.40
8408;DHT22;4241;48.452;9.216;2023-07-13T16:47:46;30.80;47.20
8408;DHT22;4241;48.452;9.216;2023-07-13T16:50:15;30.80;47.60
8408;DHT22;4241;48.452;9.216;2023-07-13T16:52:42;31.10;47.80
8408;DHT22;4241;48.452;9.216;2023-07-13T16:55:10;30.30;47.70
8408;DHT22;4241;48.452;9.216;2023-07-13T16:57:38;30.30;48.20
8408;DHT22;4241;48.452;9.216;2023-07-13T17:00:16;30.20;48.10
8408;DHT22;4241;48.452;9.216;2023-07-13T17:02:47;30.10;49.50
8408;DHT22;4241;48.452;9.216;2023-07-13T17:05:14;30.10;49.90
8408;DHT22;4241;48.452;9.216;2023-07-13T17:07:42;30.30;50.40
8408;DHT22;4241;48.452;9.216;2023-07-13T17:10:17;30.50;50.30
8408;DHT22;4241;48.452;9.216;2023-07-13T17:12:44;30.60;51.30
8408;DHT22;4241;48.452;9.216;2023-07-13T17:15:11;30.70;48.90
8408;DHT22;4241;48.452;9.216;2023-07-13T17:17:39;31.00;50.10
8408;DHT22;4241;48.452;9.216;2023-07-13T17:20:16;31.00;49.20
8408;DHT22;4241;48.452;9.216;2023-07-13T17:22:43;30.80;48.20
8408;DHT22;4241;48.452;9.216;2023-07-13T17:25:12;30.90;46.40
8408;DHT22;4241;48.452;9.216;2023-07-13T17:27:39;30.90;47.40
8408;DHT22;4241;48.452;9.216;2023-07-13T17:30:13;30.70;48.60
8408;DHT22;4241;48.452;9.216;2023-07-13T17:32:42;30.40;47.90
8408;DHT22;4241;48.452;9.216;2023-07-13T17:35:22;30.20;48.30
8408;DHT22;4241;48.452;9.216;2023-07-13T17:37:50;29.90;48.70
8408;DHT22;4241;48.452;9.216;2023-07-13T17:40:18;30.00;49.30
8408;DHT22;4241;48.452;9.216;2023-07-13T17:42:45;29.70;50.70
8408;DHT22;4241;48.452;9.216;2023-07-13T17:45:12;29.20;52.40
8408;DHT22;4241;48.452;9.216;2023-07-13T17:47:45;29.20;51.80
8408;DHT22;4241;48.452;9.216;2023-07-13T17:50:26;28.90;52.30